Flight Track Log - Related Links

Times and Time Zones

All times are in EDT time to prevent confusion due to time zone crossing. See the JBU661 flight status page for this flight to view local times or setup timezone preferences in your user account.

Time Position Orientation Groundspeed Altitude Reporting Facility
EDT Latitude Longitude Course Direction KTS MPH feet Rate Location/Type
Thu 08:25:18 AM 40.6000 -73.8000 128° Southeast 172 198 1,300  Level New York TRACON
Thu 08:26:18 AM 40.5500 -73.7667 153° Southeast 255 293 2,300 2,202 Climbing New York TRACON
Thu 08:27:00 AM 40.4403 -73.4282 128° Southeast  Level FlightAware Approximate
Thu 08:28:00 AM 40.3630 -73.3028 131° Southeast  Level FlightAware Approximate
Thu 08:28:26 AM 40.4803 -73.5814 116° Southeast 292 336 8,200  Level New York Center
Thu 08:29:00 AM 40.2844 -73.1792 128° Southeast  Level FlightAware Approximate
Thu 08:29:27 AM 40.4428 -73.4981 121° Southeast 297 342 10,300  Level New York Center
Thu 08:30:00 AM 40.2086 -73.0525 128° Southeast  Level FlightAware Approximate
Thu 08:30:25 AM 40.3872 -73.3786 121° Southeast 334 384 11,300  Level New York Center
Thu 08:31:26 AM 40.3394 -73.2708 120° Southeast 377 434 12,800 1,736 Climbing New York Center
Thu 08:32:26 AM 40.2650 -73.1403 127° Southeast 393 452 14,800 1,686 Climbing New York Center
Thu 08:33:27 AM 40.2025 -73.0375 129° Southeast 408 470 16,200 1,475 Climbing New York Center
Thu 08:34:24 AM 40.1192 -72.9261 134° Southeast 413 475 17,700 1,424 Climbing New York Center
Thu 08:35:25 AM 40.0272 -72.8203 139° Southeast 426 490 19,000 1,537 Climbing New York Center
Thu 08:36:25 AM 39.9353 -72.7200 140° Southeast 437 503 20,800 1,835 Climbing New York Center
Thu 08:37:26 AM 39.8453 -72.6175 139° Southeast 437 503 22,700 1,574 Climbing New York Center
Thu 08:38:27 AM 39.7550 -72.5153 139° Southeast 432 497 24,000 1,271 Climbing New York Center
Thu 08:39:24 AM 39.6650 -72.4106 138° Southeast 432 497 25,200 1,220 Climbing New York Center
Thu 08:40:25 AM 39.5725 -72.3086 140° Southeast 432 497 26,400 942 Climbing New York Center
Thu 08:41:25 AM 39.4800 -72.2044 139° Southeast 432 497 27,100 700 Climbing New York Center
Thu 08:42:25 AM 39.3833 -72.1003 140° Southeast 439 505 27,800 800 Climbing New York Center
Thu 08:43:25 AM 39.2867 -71.9858 137° Southeast 459 528 28,700 1,000 Climbing New York Center
Thu 08:44:25 AM 39.1878 -71.8742 139° Southeast 466 536 29,800 800 Climbing New York Center
Thu 08:45:25 AM 39.0886 -71.7683 140° Southeast 466 536 30,300 496 Climbing New York Center
Thu 08:46:26 AM 38.9872 -71.6600 140° Southeast 471 542 30,800 700 Climbing New York Center
Thu 08:47:25 AM 38.8861 -71.5439 138° Southeast 476 548 31,700 793 Climbing New York Center
Thu 08:48:27 AM 38.7844 -71.4336 140° Southeast 476 548 32,400 590 Climbing New York Center
Thu 08:49:27 AM 38.6872 -71.3208 138° Southeast 476 548 32,900 308 Climbing New York Center
Thu 08:50:24 AM 38.5833 -71.2192 143° Southeast 476 548 33,000 51 Climbing New York Center
Thu 08:51:25 AM 38.4858 -71.1069 138° Southeast 476 548 33,000  Level New York Center
Thu 08:52:26 AM 38.3839 -71.0058 142° Southeast 476 548 33,000  Level New York Center
Thu 08:53:27 AM 38.2839 -70.8969 139° Southeast 471 542 33,000 -50 Level New York Center
Thu 08:54:25 AM 38.1861 -70.7936 140° Southeast 471 542 32,900 -51 Descending New York Center
Thu 08:55:25 AM 38.0881 -70.6986 143° Southeast 460 529 32,900  Level New York Center
Thu 08:56:26 AM 37.9878 -70.5958 141° Southeast 460 529 32,900 50 Level New York Center
Thu 08:57:26 AM 37.8794 -70.5197 151° Southeast 460 529 33,000 64 Climbing New York Center
Thu 08:58:00 AM 38.0000 -70.5833 153° Southeast 460 529 33,000  Level New York Oceanic (ODAPS)
Thu 08:59:25 AM 37.6392 -70.3892 153° Southeast 448 516 33,000  Level New York Center
Thu 09:01:00 AM 37.4894 -70.2492 154° Southeast  Level FlightAware Approximate
Thu 09:08:00 AM 36.7293 -69.7919 154° Southeast  Level FlightAware Approximate
Thu 09:09:00 AM 36.6206 -69.7273 155° Southeast  Level FlightAware Approximate
Thu 09:10:00 AM 36.5118 -69.6628 155° Southeast  Level FlightAware Approximate
Thu 09:11:00 AM 36.4030 -69.5986 155° Southeast  Level FlightAware Approximate
Thu 09:12:00 AM 36.2942 -69.5346 155° Southeast  Level FlightAware Approximate
Thu 09:13:00 AM 36.1853 -69.4707 155° Southeast  Level FlightAware Approximate
Thu 09:14:00 AM 36.0856 -69.3885 142° Southeast  Level FlightAware Approximate
Thu 09:14:15 AM 36.1667 -69.4500 143° Southeast 456 525 33,000  Level New York Oceanic (ODAPS)
Thu 09:15:00 AM 35.9901 -69.2976 142° Southeast  Level FlightAware Approximate
Thu 09:16:00 AM 35.8946 -69.2069 142° Southeast  Level FlightAware Approximate
Thu 09:17:00 AM 35.7991 -69.1165 142° Southeast  Level FlightAware Approximate
Thu 09:18:00 AM 35.7035 -69.0263 143° Southeast  Level FlightAware Approximate
Thu 09:19:00 AM 35.6078 -68.9363 143° Southeast  Level FlightAware Approximate
Thu 09:20:00 AM 35.3568 -68.6921 143° Southeast 456 525 33,000  Level FlightAware Transoceanic
Thu 09:21:00 AM 35.2552 -68.5984 143° Southeast 456 525 33,000  Level FlightAware Transoceanic
Thu 09:22:00 AM 35.1536 -68.5050 143° Southeast 456 525 33,000  Level FlightAware Transoceanic
Thu 09:23:00 AM 35.0519 -68.4118 143° Southeast 456 525 33,000  Level FlightAware Transoceanic
Thu 09:24:00 AM 34.9501 -68.3188 143° Southeast 456 525 33,000  Level FlightAware Transoceanic
Thu 09:25:00 AM 34.8482 -68.2261 143° Southeast 456 525 33,000  Level FlightAware Transoceanic
Thu 09:26:00 AM 34.7463 -68.1336 143° Southeast 456 525 33,000  Level FlightAware Transoceanic
Thu 09:27:00 AM 34.6443 -68.0413 143° Southeast 456 525 33,000  Level FlightAware Transoceanic
Thu 09:28:00 AM 34.5423 -67.9493 143° Southeast 456 525 33,000  Level FlightAware Transoceanic
Thu 09:29:00 AM 34.4401 -67.8575 143° Southeast 456 525 33,000  Level FlightAware Transoceanic
Thu 09:30:00 AM 34.3379 -67.7659 144° Southeast 456 525 33,000  Level FlightAware Transoceanic
Thu 09:31:00 AM 34.2357 -67.6745 144° Southeast 456 525 33,000  Level FlightAware Transoceanic
Thu 09:32:00 AM 34.1333 -67.5833 170° South 456 525 33,000  Level FlightAware Transoceanic
Thu 09:33:00 AM 34.0056 -67.5558 170° South 456 525 33,000  Level FlightAware Transoceanic
Thu 09:34:00 AM 33.8779 -67.5285 170° South 456 525 33,000  Level FlightAware Transoceanic
Thu 09:35:00 AM 33.7503 -67.5011 170° South 456 525 33,000  Level FlightAware Transoceanic
Thu 09:36:00 AM 33.6226 -67.4739 170° South 456 525 33,000  Level FlightAware Transoceanic
Thu 09:36:00 AM 34.1333 -67.5833 170° South 453 521 33,000  Level New York Oceanic (ODAPS)
Thu 09:37:00 AM 33.4948 -67.4467 170° South 456 525 33,000  Level FlightAware Transoceanic
Thu 09:38:00 AM 33.3671 -67.4197 170° South 456 525 33,000  Level FlightAware Transoceanic
Thu 09:39:00 AM 33.2394 -67.3927 170° South 456 525 33,000  Level FlightAware Transoceanic
Thu 09:40:00 AM 33.1117 -67.3657 170° South 456 525 33,000  Level FlightAware Transoceanic
Thu 09:41:00 AM 32.9839 -67.3389 170° South 456 525 33,000  Level FlightAware Transoceanic
Thu 09:42:00 AM 32.7698 -67.2941 170° South 453 521 33,000  Level FlightAware Transoceanic
Thu 09:43:00 AM 32.6458 -67.2682 170° South 453 521 33,000  Level FlightAware Transoceanic
Thu 09:44:00 AM 32.5218 -67.2424 170° South 453 521 33,000  Level FlightAware Transoceanic
Thu 09:45:00 AM 32.3978 -67.2167 170° South 453 521 33,000  Level FlightAware Transoceanic
Thu 09:46:00 AM 32.2738 -67.1911 170° South 453 521 33,000  Level FlightAware Transoceanic
Thu 09:47:00 AM 32.1498 -67.1655 170° South 453 521 33,000  Level FlightAware Transoceanic
Thu 09:48:00 AM 32.0257 -67.1400 170° South 453 521 33,000  Level FlightAware Transoceanic
Thu 09:49:00 AM 31.9017 -67.1146 170° South 453 521 33,000  Level FlightAware Transoceanic
Thu 09:50:00 AM 31.7777 -67.0892 170° South 453 521 33,000  Level FlightAware Transoceanic
Thu 09:51:00 AM 31.6537 -67.0639 170° South 453 521 33,000  Level FlightAware Transoceanic
Thu 09:52:00 AM 31.5296 -67.0387 170° South 453 521 33,000  Level FlightAware Transoceanic
Thu 09:53:00 AM 31.4056 -67.0135 170° South 453 521 33,000  Level FlightAware Transoceanic
Thu 09:54:00 AM 31.2815 -66.9884 170° South 453 521 33,000  Level FlightAware Transoceanic
Thu 09:55:00 AM 31.1575 -66.9634 170° South 453 521 33,000  Level FlightAware Transoceanic
Thu 09:56:00 AM 31.0334 -66.9385 170° South 453 521 33,000  Level FlightAware Transoceanic
Thu 09:57:00 AM 30.9093 -66.9136 170° South 453 521 33,000  Level FlightAware Transoceanic
Thu 09:58:00 AM 30.7853 -66.8887 170° South 453 521 33,000  Level FlightAware Transoceanic
Thu 09:59:00 AM 30.6612 -66.8640 170° South 453 521 33,000  Level FlightAware Transoceanic
Thu 10:00:00 AM 30.5371 -66.8393 170° South 453 521 33,000  Level FlightAware Transoceanic
Thu 10:01:00 AM 30.4130 -66.8146 170° South 453 521 33,000  Level FlightAware Transoceanic
Thu 10:02:00 AM 30.2889 -66.7900 170° South 453 521 33,000  Level FlightAware Transoceanic
Thu 10:03:00 AM 30.1649 -66.7655 170° South 453 521 33,000  Level FlightAware Transoceanic
Thu 10:04:00 AM 30.0408 -66.7411 170° South 453 521 33,000  Level FlightAware Transoceanic
Thu 10:05:00 AM 29.9167 -66.7167 170° South 453 521 33,000 1,538 Level FlightAware Transoceanic
Thu 10:05:18 AM 29.9167 -66.7167 170° South 448 516 35,000  Climbing New York Oceanic (ODAPS)
Thu 10:06:00 AM 29.7957 -66.6930 170° South 453 521 33,000 -1,176 Descending FlightAware Transoceanic
Thu 10:07:00 AM 29.6747 -66.6694 170° South 453 521 33,000  Level FlightAware Transoceanic
Thu 10:08:00 AM 29.5537 -66.6459 170° South 453 521 33,000  Level FlightAware Transoceanic
Thu 10:09:00 AM 29.4328 -66.6224 170° South 453 521 33,000  Level FlightAware Transoceanic
Thu 10:10:00 AM 29.3118 -66.5990 170° South 453 521 33,000 1,000 Level FlightAware Transoceanic
Thu 10:11:00 AM 29.0535 -66.5492 170° South 448 516 35,000 1,000 Climbing FlightAware Transoceanic
Thu 10:12:00 AM 28.9302 -66.5255 170° South 448 516 35,000  Level FlightAware Transoceanic
Thu 10:13:00 AM 28.8068 -66.5019 170° South 448 516 35,000  Level FlightAware Transoceanic
Thu 10:14:00 AM 28.6835 -66.4783 170° South 448 516 35,000  Level FlightAware Transoceanic
Thu 10:15:00 AM 28.5601 -66.4548 171° South 448 516 35,000  Level FlightAware Transoceanic
Thu 10:16:00 AM 28.4368 -66.4313 171° South 448 516 35,000  Level FlightAware Transoceanic
Thu 10:17:00 AM 28.3134 -66.4079 171° South 448 516 35,000  Level FlightAware Transoceanic
Thu 10:18:00 AM 28.1901 -66.3845 171° South 448 516 35,000  Level FlightAware Transoceanic
Thu 10:19:00 AM 28.0667 -66.3612 171° South 448 516 35,000  Level FlightAware Transoceanic
Thu 10:20:00 AM 27.9434 -66.3380 171° South 448 516 35,000  Level FlightAware Transoceanic
Thu 10:21:00 AM 27.8200 -66.3148 171° South 448 516 35,000  Level FlightAware Transoceanic
Thu 10:22:00 AM 27.6966 -66.2916 171° South 448 516 35,000  Level FlightAware Transoceanic
Thu 10:23:00 AM 27.5733 -66.2685 171° South 448 516 35,000  Level FlightAware Transoceanic
Thu 10:24:00 AM 27.4499 -66.2455 171° South 448 516 35,000  Level FlightAware Transoceanic
Thu 10:25:00 AM 27.3265 -66.2225 171° South 448 516 35,000  Level FlightAware Transoceanic
Thu 10:26:00 AM 27.2031 -66.1996 171° South 448 516 35,000  Level FlightAware Transoceanic
Thu 10:27:00 AM 27.0797 -66.1767 171° South 448 516 35,000  Level FlightAware Transoceanic
Thu 10:28:00 AM 26.9564 -66.1538 171° South 448 516 35,000  Level FlightAware Transoceanic
Thu 10:29:00 AM 26.8330 -66.1311 171° South 448 516 35,000  Level FlightAware Transoceanic
Thu 10:30:00 AM 26.7096 -66.1083 171° South 448 516 35,000  Level FlightAware Transoceanic
Thu 10:31:00 AM 26.5862 -66.0856 171° South 448 516 35,000  Level FlightAware Transoceanic
Thu 10:32:00 AM 26.4627 -66.0630 171° South 448 516 35,000  Level FlightAware Transoceanic
Thu 10:33:00 AM 26.3393 -66.0404 171° South 448 516 35,000  Level FlightAware Transoceanic
Thu 10:34:00 AM 26.2159 -66.0178 171° South 448 516 35,000  Level FlightAware Transoceanic
Thu 10:35:00 AM 26.0925 -65.9954 171° South 448 516 35,000  Level FlightAware Transoceanic
Thu 10:36:00 AM 25.9691 -65.9729 171° South 448 516 35,000  Level FlightAware Transoceanic
Thu 10:37:00 AM 25.8457 -65.9505 171° South 448 516 35,000  Level FlightAware Transoceanic
Thu 10:38:00 AM 25.7222 -65.9281 171° South 448 516 35,000  Level FlightAware Transoceanic
Thu 10:39:00 AM 25.5988 -65.9058 171° South 448 516 35,000  Level FlightAware Transoceanic
Thu 10:40:00 AM 25.4754 -65.8836 171° South 448 516 35,000  Level FlightAware Transoceanic
Thu 10:41:00 AM 25.3519 -65.8614 171° South 448 516 35,000  Level FlightAware Transoceanic
Thu 10:42:00 AM 25.2285 -65.8392 171° South 448 516 35,000  Level FlightAware Transoceanic
Thu 10:43:00 AM 25.1051 -65.8170 171° South 448 516 35,000  Level FlightAware Transoceanic
Thu 10:44:00 AM 24.9816 -65.7950 171° South 448 516 35,000  Level FlightAware Transoceanic
Thu 10:45:00 AM 24.8582 -65.7729 171° South 448 516 35,000  Level FlightAware Transoceanic
Thu 10:46:00 AM 24.7347 -65.7509 171° South 448 516 35,000  Level FlightAware Transoceanic
Thu 10:47:00 AM 24.6112 -65.7290 171° South 448 516 35,000  Level FlightAware Transoceanic
Thu 10:48:00 AM 24.4878 -65.7071 171° South 448 516 35,000  Level FlightAware Transoceanic
Thu 10:49:00 AM 24.3643 -65.6852 171° South 448 516 35,000  Level FlightAware Transoceanic
Thu 10:50:00 AM 24.2409 -65.6634 171° South 448 516 35,000  Level FlightAware Transoceanic
Thu 10:51:00 AM 24.1174 -65.6416 171° South 448 516 35,000  Level FlightAware Transoceanic
Thu 10:52:00 AM 23.9939 -65.6199 171° South 448 516 35,000  Level FlightAware Transoceanic
Thu 10:53:00 AM 23.8704 -65.5982 171° South 448 516 35,000  Level FlightAware Transoceanic
Thu 10:54:00 AM 23.7470 -65.5765 171° South 448 516 35,000  Level FlightAware Transoceanic
Thu 10:55:00 AM 23.6235 -65.5549 171° South 448 516 35,000  Level FlightAware Transoceanic
Thu 10:56:00 AM 23.5000 -65.5333 165° South 448 516 35,000  Level FlightAware Transoceanic
Thu 10:57:00 AM 23.3809 -65.4995 165° South 448 516 35,000  Level FlightAware Transoceanic
Thu 10:58:00 AM 23.2618 -65.4656 165° South 448 516 35,000  Level FlightAware Transoceanic
Thu 10:59:00 AM 23.1427 -65.4319 165° South 448 516 35,000  Level FlightAware Transoceanic
Thu 11:00:00 AM 23.0236 -65.3981 165° South 448 516 35,000  Level FlightAware Transoceanic
Thu 11:00:54 AM 23.5000 -65.5333 165° South 433 498 35,000  Level New York Oceanic (ODAPS)
Thu 11:01:00 AM 22.9044 -65.3645 165° South 448 516 35,000  Level FlightAware Transoceanic
Thu 11:02:00 AM 22.7853 -65.3309 165° South 448 516 35,000  Level FlightAware Transoceanic
Thu 11:03:00 AM 22.6661 -65.2974 165° South 448 516 35,000  Level FlightAware Transoceanic
Thu 11:04:00 AM 22.5470 -65.2639 165° South 448 516 35,000  Level FlightAware Transoceanic
Thu 11:05:00 AM 22.4278 -65.2305 165° South 448 516 35,000  Level FlightAware Transoceanic
Thu 11:06:00 AM 22.3087 -65.1972 165° South 448 516 35,000  Level FlightAware Transoceanic
Thu 11:07:00 AM 22.4278 -65.2305 165° South 433 498 35,000  Level FlightAware Transoceanic
Thu 11:08:00 AM 22.3087 -65.1972 165° South 433 498 35,000  Level FlightAware Transoceanic
Thu 11:08:05 AM 22.3667 -65.2667 166° South 400 460 35,000  Level San Juan Center
Thu 11:09:00 AM 22.1895 -65.1639 166° South 433 498 35,000  Level FlightAware Transoceanic
Thu 11:09:05 AM 22.2667 -65.2333 163° South 410 472 35,000  Level San Juan Center
Thu 11:10:00 AM 22.0703 -65.1306 166° South 433 498 35,000  Level FlightAware Transoceanic
Thu 11:10:05 AM 22.1333 -65.1833 161° South 450 518 35,000  Level San Juan Center
Thu 11:11:00 AM 21.9511 -65.0974 166° South 433 498 35,000  Level FlightAware Transoceanic
Thu 11:11:06 AM 22.0167 -65.1500 165° South 440 506 35,000  Level San Juan Center
Thu 11:12:00 AM 21.8319 -65.0643 166° South 433 498 35,000  Level FlightAware Transoceanic
Thu 11:12:06 AM 21.9167 -65.0833 148° Southeast 410 472 35,000  Level San Juan Center
Thu 11:13:00 AM 21.7127 -65.0312 166° South 433 498 35,000  Level FlightAware Transoceanic
Thu 11:13:06 AM 21.8167 -65.0333 155° Southeast 400 460 35,000  Level San Juan Center
Thu 11:14:06 AM 21.7000 -64.9667 152° Southeast 440 506 35,000  Level San Juan Center
Thu 11:15:07 AM 21.6000 -64.9000 148° Southeast 420 483 35,000  Level San Juan Center
Thu 11:16:07 AM 21.5000 -64.8333 148° Southeast 430 495 35,000  Level San Juan Center
Thu 11:17:07 AM 21.4000 -64.7667 148° Southeast 430 495 35,000  Level San Juan Center
Thu 11:18:08 AM 21.3000 -64.7000 148° Southeast 420 483 35,000  Level San Juan Center
Thu 11:19:08 AM 21.2000 -64.6500 155° Southeast 410 472 35,000  Level San Juan Center
Thu 11:20:08 AM 21.1000 -64.5833 148° Southeast 420 483 35,000  Level San Juan Center
Thu 11:21:09 AM 20.9833 -64.5167 152° Southeast 440 506 35,000  Level San Juan Center
Thu 11:22:09 AM 20.8833 -64.4500 148° Southeast 430 495 35,000  Level San Juan Center
Thu 11:23:09 AM 20.7667 -64.3833 152° Southeast 440 506 35,000  Level San Juan Center
Thu 11:24:09 AM 20.6667 -64.3167 148° Southeast 420 483 35,000  Level San Juan Center
Thu 11:25:09 AM 20.5667 -64.2500 148° Southeast 430 495 35,000  Level San Juan Center
Thu 11:26:10 AM 20.4500 -64.2000 158° South 430 495 35,000  Level San Juan Center
Thu 11:27:10 AM 20.3500 -64.1333 148° Southeast 430 495 35,000  Level San Juan Center
Thu 11:28:10 AM 20.2500 -64.0667 148° Southeast 430 495 35,000  Level San Juan Center
Thu 11:29:11 AM 20.1333 -64.0000 152° Southeast 430 495 35,000  Level San Juan Center
Thu 11:30:11 AM 20.0333 -63.9333 148° Southeast 430 495 35,000  Level San Juan Center
Thu 11:31:11 AM 19.9333 -63.8833 155° Southeast 430 495 35,000  Level San Juan Center
Thu 11:32:12 AM 19.8333 -63.8167 148° Southeast 430 495 35,000  Level San Juan Center
Thu 11:33:12 AM 19.7167 -63.7500 152° Southeast 430 495 35,000  Level San Juan Center
Thu 11:34:12 AM 19.6167 -63.6833 148° Southeast 430 495 35,000  Level San Juan Center
Thu 11:35:13 AM 19.5000 -63.6333 158° South 440 506 35,000  Level San Juan Center
Thu 11:36:13 AM 19.4000 -63.5667 148° Southeast 440 506 35,000  Level San Juan Center
Thu 11:37:13 AM 19.3000 -63.5000 148° Southeast 440 506 35,000  Level San Juan Center
Thu 11:38:14 AM 19.1833 -63.4500 158° South 440 506 35,000  Level San Juan Center
Thu 11:39:14 AM 19.0667 -63.3833 152° Southeast 440 506 35,000  Level San Juan Center
Thu 11:40:14 AM 18.9667 -63.3167 148° Southeast 440 506 35,000  Level San Juan Center
Thu 11:41:15 AM 18.8500 -63.2500 152° Southeast 440 506 35,000  Level San Juan Center
Thu 11:42:15 AM 18.7500 -63.1833 148° Southeast 440 506 35,000  Level San Juan Center
Thu 11:44:15 AM 18.5500 -63.0667 151° Southeast 440 506 35,000  Level San Juan Center
Thu 11:45:16 AM 18.4333 -63.0000 152° Southeast 440 506 35,000  Level San Juan Center
Thu 11:46:16 AM 18.3167 -62.9333 152° Southeast 440 506 35,000  Level San Juan Center
Thu 11:47:16 AM 18.2000 -62.8667 152° Southeast 440 506 35,000  Level San Juan Center
Thu 11:48:16 AM 18.1000 -62.8167 155° Southeast 440 506 35,000  Level San Juan Center
Thu 11:49:17 AM 17.9833 -62.7500 151° Southeast 450 518 35,000  Level San Juan Center
Thu 11:50:17 AM 17.8833 -62.6833 148° Southeast 440 506 35,000  Level San Juan Center
Thu 11:51:17 AM 17.7667 -62.6167 151° Southeast 440 506 35,000  Level San Juan Center
Thu 11:52:18 AM 17.6667 -62.5500 148° Southeast 460 529 35,000  Level San Juan Center
Thu 11:53:18 AM 17.5667 -62.4667 142° Southeast 460 529 35,000  Level San Juan Center
Thu 11:54:18 AM 17.5000 -62.3500 121° Southeast 460 529 35,000  Level San Juan Center
Thu 11:55:19 AM 17.4333 -62.2500 125° Southeast 460 529 35,000  Level San Juan Center
Thu 11:57:00 AM 17.3228 -62.0926 126° Southeast  Level FlightAware Approximate
Thu 12:04:00 PM 16.7446 -61.5789 150° Southeast  Level FlightAware Approximate
Thu 12:05:00 PM 16.6483 -61.5218 150° Southeast  Level FlightAware Approximate
Thu 12:06:00 PM 16.5518 -61.4651 151° Southeast  Level FlightAware Approximate
Thu 12:07:00 PM 16.4549 -61.4091 151° Southeast  Level FlightAware Approximate
Thu 12:08:00 PM 16.3580 -61.3532 151° Southeast  Level FlightAware Approximate
Thu 12:09:00 PM 16.2611 -61.2973 151° Southeast  Level FlightAware Approximate
Thu 12:10:00 PM 16.1641 -61.2415 151° Southeast  Level FlightAware Approximate
Thu 12:11:00 PM 16.0672 -61.1858 151° Southeast  Level FlightAware Approximate
Thu 12:12:00 PM 15.9702 -61.1301 151° Southeast  Level FlightAware Approximate
Thu 12:13:00 PM 15.8732 -61.0745 151° Southeast  Level FlightAware Approximate
Thu 12:14:00 PM 15.7762 -61.0189 151° Southeast  Level FlightAware Approximate
Thu 12:15:00 PM 15.6792 -60.9633 151° Southeast  Level FlightAware Approximate
Thu 12:16:00 PM 15.5822 -60.9078 151° Southeast  Level FlightAware Approximate
Thu 12:17:00 PM 15.4852 -60.8524 151° Southeast  Level FlightAware Approximate
Thu 12:18:00 PM 15.3882 -60.7970 151° Southeast  Level FlightAware Approximate
Thu 12:19:00 PM 15.2911 -60.7417 151° Southeast  Level FlightAware Approximate
Thu 12:20:00 PM 15.1940 -60.6864 151° Southeast  Level FlightAware Approximate
Thu 12:21:00 PM 15.0969 -60.6312 151° Southeast  Level FlightAware Approximate
Thu 12:22:00 PM 14.9998 -60.5760 151° Southeast  Level FlightAware Approximate
Thu 12:23:00 PM 14.9042 -60.5182 149° Southeast  Level FlightAware Approximate
Thu 12:24:00 PM 14.8088 -60.4599 149° Southeast  Level FlightAware Approximate
Thu 12:25:00 PM 14.7135 -60.4017 149° Southeast  Level FlightAware Approximate
Thu 12:26:00 PM 14.6174 -60.3450 147° Southeast  Level FlightAware Approximate
Thu 12:27:00 PM 14.5202 -60.2903 152° Southeast  Level FlightAware Approximate
Thu 12:28:00 PM 14.4220 -60.2375 152° Southeast  Level FlightAware Approximate
Thu 12:29:00 PM 14.3238 -60.1846 152° Southeast  Level FlightAware Approximate
Thu 12:30:00 PM 14.2256 -60.1317 152° Southeast  Level FlightAware Approximate
Thu 12:31:00 PM 14.1281 -60.0775 150° Southeast  Level FlightAware Approximate
Thu 12:32:00 PM 14.0317 -60.0212 150° Southeast  Level FlightAware Approximate
Thu 12:33:00 PM 13.9354 -59.9650 150° Southeast  Level FlightAware Approximate
Thu 12:34:00 PM 13.8390 -59.9088 150° Southeast  Level FlightAware Approximate
Thu 12:35:00 PM 13.7423 -59.8531 152° Southeast  Level FlightAware Approximate
Thu 12:36:00 PM 13.6448 -59.7990 152° Southeast  Level FlightAware Approximate
Thu 12:37:00 PM 13.5471 -59.7454 152° Southeast  Level FlightAware Approximate
Thu 12:38:00 PM 13.4493 -59.6920 152° Southeast  Level FlightAware Approximate
Thu 12:39:00 PM 13.3518 -59.6380 152° Southeast  Level FlightAware Approximate
Thu 12:40:00 PM 13.2548 -59.5829 150° Southeast  Level FlightAware Approximate
Thu 12:41:00 PM 13.1575 -59.5288 154° Southeast  Level FlightAware Approximate
Thu 12:42:00 PM 13.0746 -59.4925 90° East  Level Estimated
Thu 12:43:00 PM 13.0746 -59.4925 90° East  Level Estimated
Thu 12:44:00 PM 13.0746 -59.4925 90° East  Level Estimated
Thu 12:45:00 PM 13.0746 -59.4925 90° East  Level Estimated
Thu 12:46:00 PM 13.0746 -59.4925 90° East  Level Estimated
Thu 12:47:00 PM 13.0746 -59.4925 90° East  Level Estimated
Thu 12:48:00 PM 13.0746 -59.4925 90° East  Level Estimated
Thu 12:49:00 PM 13.0746 -59.4925 90° East  Level Estimated
Thu 12:50:00 PM 13.0746 -59.4925 90° East  Level Estimated
Thu 12:51:00 PM 13.0746 -59.4925 90° East  Level Estimated

Login

Don't have an account? Register now (free) for customized features, flight alerts, and more!